| time (UTC) | temp C | wind direction | speed KPH | gust KPH | rain 1hr cm | rain 24hr cm | rain mn cm | humidity % | barometer mb |
| 20260906224459 | 36 | 151 | 3.2 | 3.2 | 0.00 | 0.00 | 0.00 | 43 | 1016.4 |
| 20260906223955 | 36 | 111 | 1.6 | 3.2 | 0.00 | 0.00 | 0.00 | 43 | 1016.4 |
| 20260906223451 | 36 | 214 | 8.0 | 11.3 | 0.00 | 0.00 | 0.00 | 42 | 1016.4 |
| 20260906222949 | 36 | 212 | 4.8 | 6.4 | 0.00 | 0.00 | 0.00 | 42 | 1016.4 |
| 20260906222443 | 36 | 174 | 1.6 | 3.2 | 0.00 | 0.00 | 0.00 | 42 | 1016.3 |
| 20260906221941 | 36 | 29 | 3.2 | 4.8 | 0.00 | 0.00 | 0.00 | 42 | 1016.7 |
| 20260906221435 | 36 | 233 | 4.8 | 4.8 | 0.00 | 0.00 | 0.00 | 42 | 1016.6 |
| 20260906220931 | 36 | 79 | 3.2 | 6.4 | 0.00 | 0.00 | 0.00 | 43 | 1016.5 |
| 20260906220426 | 36 | 238 | 4.8 | 4.8 | 0.00 | 0.00 | 0.00 | 43 | 1016.4 |
| 20260906215924 | 36 | 224 | 4.8 | 4.8 | 0.00 | 0.00 | 0.00 | 43 | 1016.4 |
| 20260906215420 | 36 | 212 | 8.0 | 11.3 | 0.00 | 0.00 | 0.00 | 42 | 1016.4 |
| 20260906214918 | 36 | 56 | 4.8 | 9.7 | 0.00 | 0.00 | 0.00 | 42 | 1016.4 |
| 20260906214417 | 36 | 197 | 6.4 | 11.3 | 0.00 | 0.00 | 0.00 | 43 | 1016.3 |
| 20260906213916 | 36 | 202 | 1.6 | 3.2 | 0.00 | 0.00 | 0.00 | 42 | 1016.6 |
| 20260906213411 | 36 | 204 | 8.0 | 11.3 | 0.00 | 0.00 | 0.00 | 43 | 1016.4 |
| 20260906212908 | 36 | 245 | 4.8 | 4.8 | 0.00 | 0.00 | 0.00 | 43 | 1016.5 |
| 20260906212404 | 36 | 142 | 3.2 | 3.2 | 0.00 | 0.00 | 0.00 | 42 | 1016.7 |
| 20260906211904 | 36 | 175 | 0.0 | 0.0 | 0.00 | 0.00 | 0.00 | 41 | 1016.8 |
| 20260906211359 | 36 | 154 | 4.8 | 6.4 | 0.00 | 0.00 | 0.00 | 42 | 1016.9 |
| 20260906210854 | 36 | 43 | 4.8 | 4.8 | 0.00 | 0.00 | 0.00 | 42 | 1016.8 |
| 20260906210349 | 36 | 117 | 3.2 | 3.2 | 0.00 | 0.00 | 0.00 | 42 | 1017.0 |
| 20260906205844 | 36 | 106 | 8.0 | 12.9 | 0.00 | 0.00 | 0.00 | 41 | 1017.0 |
| 20260906205340 | 36 | 120 | 4.8 | 6.4 | 0.00 | 0.00 | 0.00 | 42 | 1017.0 |
| 20260906204836 | 36 | 138 | 3.2 | 4.8 | 0.00 | 0.00 | 0.00 | 42 | 1017.2 |
| 20260906204334 | 36 | 198 | 3.2 | 3.2 | 0.00 | 0.00 | 0.00 | 44 | 1017.1 |
| 20260906203834 | 36 | 50 | 3.2 | 3.2 | 0.00 | 0.00 | 0.00 | 42 | 1017.2 |
| 20260906203329 | 36 | 128 | 3.2 | 6.4 | 0.00 | 0.00 | 0.00 | 41 | 1017.3 |
| 20260906202826 | 36 | 179 | 4.8 | 6.4 | 0.00 | 0.00 | 0.00 | 43 | 1017.4 |
| 20260906202325 | 37 | 254 | 4.8 | 4.8 | 0.00 | 0.00 | 0.00 | 42 | 1017.4 |
| 20260906201820 | 36 | 61 | 4.8 | 9.7 | 0.00 | 0.00 | 0.00 | 42 | 1017.4 |
| 20260906201320 | 37 | 190 | 6.4 | 9.7 | 0.00 | 0.00 | 0.00 | 41 | 1017.6 |
| 20260906200815 | 37 | 109 | 9.7 | 14.5 | 0.00 | 0.00 | 0.00 | 42 | 1017.7 |
| 20260906200311 | 37 | 161 | 1.6 | 4.8 | 0.00 | 0.00 | 0.00 | 40 | 1017.6 |
| 20260906195806 | 37 | 177 | 6.4 | 6.4 | 0.00 | 0.00 | 0.00 | 41 | 1017.8 |
| 20260906195306 | 37 | 220 | 1.6 | 4.8 | 0.00 | 0.00 | 0.00 | 41 | 1017.6 |
| 20260906194758 | 37 | 218 | 8.0 | 9.7 | 0.00 | 0.00 | 0.00 | 41 | 1018.0 |
| 20260906194254 | 37 | 185 | 3.2 | 3.2 | 0.00 | 0.00 | 0.00 | 43 | 1017.7 |
| 20260906193748 | 36 | 209 | 0.0 | 0.0 | 0.00 | 0.00 | 0.00 | 45 | 1017.8 |
| 20260906193243 | 36 | 130 | 4.8 | 4.8 | 0.00 | 0.00 | 0.00 | 44 | 1017.9 |
| 20260906192739 | 36 | 31 | 9.7 | 11.3 | 0.00 | 0.00 | 0.00 | 45 | 1018.0 |
| 20260906192234 | 36 | 160 | 1.6 | 3.2 | 0.00 | 0.00 | 0.00 | 45 | 1018.1 |
| 20260906191733 | 37 | 206 | 4.8 | 9.7 | 0.00 | 0.00 | 0.00 | 43 | 1018.2 |
| 20260906191228 | 36 | 221 | 6.4 | 9.7 | 0.00 | 0.00 | 0.00 | 44 | 1018.3 |
| 20260906190727 | 36 | 224 | 8.0 | 11.3 | 0.00 | 0.00 | 0.00 | 45 | 1018.1 |
| 20260906190222 | 36 | 149 | 0.0 | 1.6 | 0.00 | 0.00 | 0.00 | 45 | 1018.3 |
| 20260906185721 | 37 | 140 | 3.2 | 4.8 | 0.00 | 0.00 | 0.00 | 44 | 1018.3 |
| 20260906185220 | 36 | 143 | 1.6 | 1.6 | 0.00 | 0.00 | 0.00 | 45 | 1018.5 |
| 20260906184715 | 36 | 62 | 4.8 | 6.4 | 0.00 | 0.00 | 0.00 | 46 | 1018.5 |
| 20260906184210 | 36 | 204 | 1.6 | 3.2 | 0.00 | 0.00 | 0.00 | 44 | 1018.7 |
| 20260906183706 | 36 | 215 | 1.6 | 3.2 | 0.00 | 0.00 | 0.00 | 46 | 1018.5 |
| 20260906183202 | 36 | 241 | 1.6 | 3.2 | 0.00 | 0.00 | 0.00 | 47 | 1019.0 |
| 20260906182702 | 36 | 201 | 1.6 | 3.2 | 0.00 | 0.00 | 0.00 | 47 | 1018.9 |
| 20260906182158 | 36 | 211 | 6.4 | 9.7 | 0.00 | 0.00 | 0.00 | 46 | 1018.9 |
| 20260906181653 | 36 | 202 | 0.0 | 1.6 | 0.00 | 0.00 | 0.00 | 47 | 1019.0 |
| 20260906181149 | 36 | 75 | 3.2 | 4.8 | 0.00 | 0.00 | 0.00 | 46 | 1019.1 |
| 20260906180649 | 36 | 164 | 3.2 | 4.8 | 0.00 | 0.00 | 0.00 | 46 | 1019.1 |
| 20260906180145 | 35 | 292 | 1.6 | 3.2 | 0.00 | 0.00 | 0.00 | 48 | 1019.1 |
| 20260906175642 | 35 | 100 | 3.2 | 4.8 | 0.00 | 0.00 | 0.00 | 50 | 1019.1 |
| 20260906175138 | 36 | 185 | 1.6 | 3.2 | 0.00 | 0.00 | 0.00 | 48 | 1019.3 |
| 20260906174636 | 36 | 79 | 1.6 | 1.6 | 0.00 | 0.00 | 0.00 | 48 | 1019.4 |
| 20260906174131 | 36 | 201 | 4.8 | 4.8 | 0.00 | 0.00 | 0.00 | 50 | 1019.6 |
| 20260906173626 | 36 | 166 | 1.6 | 1.6 | 0.00 | 0.00 | 0.00 | 47 | 1019.7 |
| 20260906173116 | 35 | 57 | 3.2 | 4.8 | 0.00 | 0.00 | 0.00 | 49 | 1019.6 |
| 20260906172616 | 35 | 225 | 4.8 | 6.4 | 0.00 | 0.00 | 0.00 | 52 | 1019.7 |
| 20260906172112 | 35 | 180 | 4.8 | 4.8 | 0.00 | 0.00 | 0.00 | 51 | 1019.7 |
| 20260906171611 | 33 | 178 | 3.2 | 4.8 | 0.00 | 0.00 | 0.00 | 54 | 1019.9 |
| 20260906171107 | 33 | 117 | 3.2 | 3.2 | 0.00 | 0.00 | 0.00 | 54 | 1019.9 |
| 20260906170603 | 35 | 235 | 4.8 | 6.4 | 0.00 | 0.00 | 0.00 | 51 | 1019.9 |
| 20260906165558 | 34 | 200 | 4.8 | 4.8 | 0.00 | 0.00 | 0.00 | 53 | 1020.1 |
| 20260906165052 | 34 | 208 | 9.7 | 11.3 | 0.00 | 0.00 | 0.00 | 53 | 1020.1 |
| 20260906164552 | 33 | 241 | 3.2 | 3.2 | 0.00 | 0.00 | 0.00 | 54 | 1020.0 |
| 20260906164048 | 34 | 225 | 4.8 | 4.8 | 0.00 | 0.00 | 0.00 | 54 | 1020.1 |
| 20260906163543 | 34 | 200 | 4.8 | 6.4 | 0.00 | 0.00 | 0.00 | 52 | 1020.0 |
| 20260906163038 | 33 | 85 | 6.4 | 9.7 | 0.00 | 0.00 | 0.00 | 53 | 1020.0 |
| 20260906162536 | 35 | 64 | 3.2 | 4.8 | 0.00 | 0.00 | 0.00 | 52 | 1019.8 |
| 20260906162031 | 35 | 186 | 3.2 | 3.2 | 0.00 | 0.00 | 0.00 | 52 | 1019.9 |
| 20260906161526 | 34 | 135 | 3.2 | 4.8 | 0.00 | 0.00 | 0.00 | 53 | 1020.0 |
| 20260906161024 | 34 | 131 | 1.6 | 1.6 | 0.00 | 0.00 | 0.00 | 52 | 1019.8 |
| 20260906160524 | 33 | 86 | 3.2 | 4.8 | 0.00 | 0.00 | 0.00 | 54 | 1019.9 |
| 20260906160022 | 33 | 47 | 6.4 | 9.7 | 0.00 | 0.00 | 0.00 | 56 | 1019.8 |
| 20260906155520 | 33 | 187 | 3.2 | 4.8 | 0.00 | 0.00 | 0.00 | 56 | 1019.7 |
| 20260906155016 | 33 | 97 | 0.0 | 0.0 | 0.00 | 0.00 | 0.00 | 57 | 1019.8 |
| 20260906154512 | 32 | 234 | 0.0 | 1.6 | 0.00 | 0.00 | 0.00 | 58 | 1019.9 |
| 20260906154010 | 34 | 192 | 3.2 | 3.2 | 0.00 | 0.00 | 0.00 | 57 | 1019.8 |
| 20260906153509 | 32 | 174 | 1.6 | 1.6 | 0.00 | 0.00 | 0.00 | 60 | 1019.8 |
| 20260906153005 | 32 | 214 | 0.0 | 1.6 | 0.00 | 0.00 | 0.00 | 64 | 1019.9 |
| 20260906152459 | 32 | 40 | 1.6 | 4.8 | 0.00 | 0.00 | 0.00 | 61 | 1019.7 |
| 20260906151953 | 32 | 98 | 1.6 | 1.6 | 0.00 | 0.00 | 0.00 | 64 | 1019.7 |
| 20260906151448 | 32 | 226 | 1.6 | 1.6 | 0.00 | 0.00 | 0.00 | 63 | 1019.7 |
| 20260906150944 | 32 | 86 | 1.6 | 1.6 | 0.00 | 0.00 | 0.00 | 64 | 1019.7 |
| 20260906150439 | 31 | 169 | 0.0 | 1.6 | 0.00 | 0.00 | 0.00 | 66 | 1019.6 |
| 20260906145938 | 31 | 63 | 1.6 | 1.6 | 0.00 | 0.00 | 0.00 | 66 | 1019.5 |
| 20260906145437 | 31 | 170 | 0.0 | 1.6 | 0.00 | 0.00 | 0.00 | 68 | 1019.7 |
| 20260906144932 | 32 | 192 | 0.0 | 1.6 | 0.00 | 0.00 | 0.00 | 67 | 1019.7 |
| 20260906144427 | 31 | 68 | 1.6 | 3.2 | 0.00 | 0.00 | 0.00 | 66 | 1019.6 |
| 20260906143922 | 31 | 210 | 1.6 | 3.2 | 0.00 | 0.00 | 0.00 | 69 | 1019.6 |
| 20260906143418 | 31 | 84 | 0.0 | 1.6 | 0.00 | 0.00 | 0.00 | 70 | 1019.8 |
| 20260906142914 | 31 | 100 | 3.2 | 3.2 | 0.00 | 0.00 | 0.00 | 70 | 1019.6 |
| 20260906142413 | 30 | 106 | 1.6 | 1.6 | 0.00 | 0.00 | 0.00 | 72 | 1019.6 |
| 20260906141908 | 30 | 142 | 0.0 | 0.0 | 0.00 | 0.00 | 0.00 | 74 | 1019.9 |
| 20260906141408 | 30 | 136 | 1.6 | 1.6 | 0.00 | 0.00 | 0.00 | 75 | 1019.8 |
| 20260906140902 | 30 | 140 | 1.6 | 1.6 | 0.00 | 0.00 | 0.00 | 76 | 1019.6 |
| 20260906140357 | 29 | 110 | 1.6 | 1.6 | 0.00 | 0.00 | 0.00 | 77 | 1019.6 |
| 20260906135854 | 29 | 94 | 3.2 | 4.8 | 0.00 | 0.00 | 0.00 | 77 | 1019.6 |
| 20260906135349 | 28 | 165 | 0.0 | 0.0 | 0.00 | 0.00 | 0.00 | 80 | 1019.8 |
| 20260906134844 | 28 | 80 | 3.2 | 3.2 | 0.00 | 0.00 | 0.00 | 80 | 1019.6 |
| 20260906134339 | 28 | 160 | 0.0 | 0.0 | 0.00 | 0.00 | 0.00 | 80 | 1019.5 |
| 20260906133834 | 28 | 112 | 1.6 | 3.2 | 0.00 | 0.00 | 0.00 | 81 | 1019.5 |
| 20260906133325 | 28 | 133 | 0.0 | 0.0 | 0.00 | 0.00 | 0.00 | 82 | 1019.7 |
| 20260906132820 | 27 | 163 | 0.0 | 1.6 | 0.00 | 0.00 | 0.00 | 83 | 1019.6 |
| 20260906132315 | 27 | 77 | 3.2 | 3.2 | 0.00 | 0.00 | 0.00 | 84 | 1019.7 |
| 20260906131810 | 27 | 79 | 0.0 | 0.0 | 0.00 | 0.00 | 0.00 | 84 | 1020.0 |
| 20260906131305 | 27 | 94 | 3.2 | 3.2 | 0.00 | 0.00 | 0.00 | 85 | 1019.6 |
| 20260906130801 | 26 | 143 | 1.6 | 1.6 | 0.00 | 0.00 | 0.00 | 85 | 1019.8 |
| 20260906130256 | 26 | 135 | 0.0 | 0.0 | 0.00 | 0.00 | 0.00 | 85 | 1019.6 |
| 20260906125755 | 26 | 158 | 0.0 | 0.0 | 0.00 | 0.00 | 0.00 | 86 | 1019.7 |
| 20260906125252 | 26 | 146 | 0.0 | 0.0 | 0.00 | 0.00 | 0.00 | 86 | 1019.5 |
| 20260906124753 | 25 | 148 | 0.0 | 0.0 | 0.00 | 0.00 | 0.00 | 88 | 1019.4 |
| 20260906124249 | 25 | 172 | 0.0 | 0.0 | 0.00 | 0.00 | 0.00 | 90 | 1019.4 |
| 20260906123747 | 25 | 121 | 0.0 | 0.0 | 0.00 | 0.00 | 0.00 | 91 | 1019.3 |
| 20260906123243 | 25 | 153 | 0.0 | 0.0 | 0.00 | 0.00 | 0.00 | 92 | 1019.3 |
| 20260906122742 | 24 | 98 | 0.0 | 0.0 | 0.00 | 0.00 | 0.00 | 92 | 1019.6 |
| 20260906122238 | 24 | 198 | 0.0 | 0.0 | 0.00 | 0.00 | 0.00 | 92 | 1019.2 |
| 20260906121734 | 24 | 162 | 0.0 | 0.0 | 0.00 | 0.00 | 0.00 | 92 | 1019.3 |
| 20260906121230 | 24 | 168 | 0.0 | 0.0 | 0.00 | 0.00 | 0.00 | 92 | 1019.3 |
| 20260906120726 | 24 | 165 | 0.0 | 0.0 | 0.00 | 0.00 | 0.00 | 92 | 1019.0 |
| 20260906120222 | 24 | 159 | 0.0 | 0.0 | 0.00 | 0.00 | 0.00 | 92 | 1019.2 |
| 20260906115718 | 24 | 107 | 0.0 | 0.0 | 0.00 | 0.00 | 0.00 | 92 | 1019.0 |
| 20260906115213 | 24 | 173 | 0.0 | 0.0 | 0.00 | 0.00 | 0.00 | 92 | 1019.1 |
| 20260906114712 | 24 | 182 | 0.0 | 0.0 | 0.00 | 0.00 | 0.00 | 92 | 1018.9 |
| 20260906114207 | 24 | 177 | 0.0 | 0.0 | 0.00 | 0.00 | 0.00 | 91 | 1018.9 |
| 20260906113701 | 25 | 176 | 0.0 | 0.0 | 0.00 | 0.00 | 0.00 | 91 | 1018.8 |
| 20260906113201 | 25 | 180 | 0.0 | 0.0 | 0.00 | 0.00 | 0.00 | 91 | 1018.8 |
| 20260906112700 | 25 | 141 | 0.0 | 0.0 | 0.00 | 0.00 | 0.00 | 91 | 1018.9 |
| 20260906112158 | 25 | 186 | 0.0 | 0.0 | 0.00 | 0.00 | 0.00 | 91 | 1018.7 |
| 20260906111657 | 25 | 198 | 0.0 | 0.0 | 0.00 | 0.00 | 0.00 | 91 | 1018.8 |
| 20260906111152 | 25 | 166 | 0.0 | 0.0 | 0.00 | 0.00 | 0.00 | 91 | 1018.9 |
| 20260906110647 | 25 | 181 | 0.0 | 0.0 | 0.00 | 0.00 | 0.00 | 91 | 1018.7 |
| 20260906110142 | 25 | 171 | 0.0 | 0.0 | 0.00 | 0.00 | 0.00 | 90 | 1018.9 |
| 20260906105636 | 25 | 170 | 0.0 | 0.0 | 0.00 | 0.00 | 0.00 | 90 | 1018.7 |
| 20260906105132 | 25 | 164 | 0.0 | 0.0 | 0.00 | 0.00 | 0.00 | 90 | 1018.7 |
| 20260906104631 | 25 | 184 | 0.0 | 0.0 | 0.00 | 0.00 | 0.00 | 90 | 1018.4 |
| 20260906104131 | 25 | 166 | 0.0 | 0.0 | 0.00 | 0.00 | 0.00 | 90 | 1018.3 |
| 20260906103629 | 25 | 178 | 0.0 | 0.0 | 0.00 | 0.00 | 0.00 | 89 | 1018.5 |
| 20260906103124 | 25 | 182 | 0.0 | 0.0 | 0.00 | 0.00 | 0.00 | 89 | 1018.4 |
| 20260906102620 | 25 | 173 | 0.0 | 0.0 | 0.00 | 0.00 | 0.00 | 89 | 1018.5 |
| 20260906102114 | 25 | 162 | 0.0 | 0.0 | 0.00 | 0.00 | 0.00 | 89 | 1018.3 |
| 20260906101614 | 25 | 152 | 0.0 | 0.0 | 0.00 | 0.00 | 0.00 | 88 | 1018.3 |
| 20260906101109 | 25 | 141 | 0.0 | 0.0 | 0.00 | 0.00 | 0.00 | 88 | 1018.5 |
| 20260906100604 | 25 | 133 | 0.0 | 0.0 | 0.00 | 0.00 | 0.00 | 88 | 1018.5 |
| 20260906100059 | 25 | 164 | 0.0 | 0.0 | 0.00 | 0.00 | 0.00 | 88 | 1018.3 |
| 20260906095559 | 25 | 139 | 0.0 | 0.0 | 0.00 | 0.00 | 0.00 | 88 | 1018.3 |
| 20260906095054 | 25 | 150 | 0.0 | 0.0 | 0.00 | 0.00 | 0.00 | 88 | 1018.2 |
| 20260906094553 | 25 | 141 | 0.0 | 0.0 | 0.00 | 0.00 | 0.00 | 87 | 1018.4 |
| 20260906094049 | 25 | 147 | 0.0 | 0.0 | 0.00 | 0.00 | 0.00 | 87 | 1018.2 |
| 20260906093545 | 25 | 110 | 0.0 | 0.0 | 0.00 | 0.00 | 0.00 | 87 | 1018.1 |
| 20260906093040 | 25 | 138 | 0.0 | 0.0 | 0.00 | 0.00 | 0.00 | 87 | 1018.1 |
| 20260906092535 | 25 | 126 | 0.0 | 0.0 | 0.00 | 0.00 | 0.00 | 87 | 1017.9 |
| 20260906092030 | 25 | 133 | 0.0 | 0.0 | 0.00 | 0.00 | 0.00 | 87 | 1018.0 |
| 20260906091525 | 25 | 142 | 0.0 | 0.0 | 0.00 | 0.00 | 0.00 | 86 | 1017.9 |
| 20260906091022 | 25 | 153 | 0.0 | 0.0 | 0.00 | 0.00 | 0.00 | 86 | 1018.1 |
| 20260906090521 | 25 | 127 | 0.0 | 0.0 | 0.00 | 0.00 | 0.00 | 86 | 1017.9 |
| 20260906090017 | 25 | 166 | 0.0 | 0.0 | 0.00 | 0.00 | 0.00 | 86 | 1017.8 |
| 20260906085515 | 25 | 186 | 0.0 | 0.0 | 0.00 | 0.00 | 0.00 | 86 | 1017.9 |
| 20260906085010 | 25 | 98 | 0.0 | 0.0 | 0.00 | 0.00 | 0.00 | 85 | 1017.6 |
| 20260906084509 | 26 | 156 | 1.6 | 1.6 | 0.00 | 0.00 | 0.00 | 85 | 1017.6 |
| 20260906084008 | 26 | 170 | 0.0 | 0.0 | 0.00 | 0.00 | 0.00 | 84 | 1017.7 |
| 20260906083504 | 26 | 179 | 0.0 | 0.0 | 0.00 | 0.00 | 0.00 | 84 | 1017.7 |
| 20260906083003 | 26 | 164 | 0.0 | 0.0 | 0.00 | 0.00 | 0.00 | 83 | 1017.7 |
| 20260906082459 | 26 | 90 | 0.0 | 0.0 | 0.00 | 0.00 | 0.00 | 83 | 1017.8 |
| 20260906081954 | 26 | 187 | 0.0 | 0.0 | 0.00 | 0.00 | 0.00 | 82 | 1017.7 |
| 20260906081449 | 26 | 191 | 0.0 | 0.0 | 0.00 | 0.00 | 0.00 | 82 | 1017.6 |
| 20260906080945 | 26 | 200 | 0.0 | 0.0 | 0.00 | 0.00 | 0.00 | 82 | 1017.7 |
| 20260906080443 | 26 | 197 | 0.0 | 0.0 | 0.00 | 0.00 | 0.00 | 81 | 1017.7 |
| 20260906075942 | 26 | 186 | 0.0 | 0.0 | 0.00 | 0.00 | 0.00 | 81 | 1017.5 |
| 20260906075437 | 26 | 204 | 1.6 | 1.6 | 0.00 | 0.00 | 0.00 | 81 | 1017.8 |
| 20260906074932 | 26 | 193 | 0.0 | 0.0 | 0.00 | 0.00 | 0.00 | 81 | 1017.9 |
| 20260906074426 | 26 | 188 | 0.0 | 0.0 | 0.00 | 0.00 | 0.00 | 81 | 1017.8 |
| 20260906073925 | 26 | 194 | 0.0 | 0.0 | 0.00 | 0.00 | 0.00 | 81 | 1017.8 |
| 20260906073420 | 26 | 155 | 0.0 | 0.0 | 0.00 | 0.00 | 0.00 | 80 | 1017.8 |
| 20260906072917 | 26 | 154 | 1.6 | 1.6 | 0.00 | 0.00 | 0.00 | 80 | 1017.6 |
| 20260906072412 | 26 | 172 | 0.0 | 0.0 | 0.00 | 0.00 | 0.00 | 80 | 1017.5 |
| 20260906071908 | 26 | 195 | 0.0 | 0.0 | 0.00 | 0.00 | 0.00 | 79 | 1017.6 |
| 20260906071403 | 26 | 192 | 0.0 | 1.6 | 0.00 | 0.00 | 0.00 | 79 | 1017.8 |
| 20260906070859 | 26 | 192 | 1.6 | 1.6 | 0.00 | 0.00 | 0.00 | 78 | 1017.8 |
| 20260906070355 | 26 | 213 | 1.6 | 1.6 | 0.00 | 0.00 | 0.00 | 78 | 1018.1 |
| 20260906065850 | 26 | 175 | 0.0 | 0.0 | 0.00 | 0.00 | 0.00 | 78 | 1018.2 |
| 20260906065344 | 26 | 188 | 0.0 | 0.0 | 0.00 | 0.00 | 0.00 | 78 | 1018.0 |
| 20260906064841 | 27 | 195 | 0.0 | 0.0 | 0.00 | 0.00 | 0.00 | 78 | 1018.2 |
| 20260906064337 | 27 | 179 | 0.0 | 0.0 | 0.00 | 0.00 | 0.00 | 77 | 1018.1 |
| 20260906063836 | 27 | 207 | 0.0 | 0.0 | 0.00 | 0.00 | 0.00 | 77 | 1018.1 |
| 20260906063332 | 27 | 164 | 0.0 | 0.0 | 0.00 | 0.00 | 0.00 | 76 | 1018.2 |
| 20260906062827 | 27 | 197 | 0.0 | 0.0 | 0.00 | 0.00 | 0.00 | 76 | 1018.3 |
| 20260906062326 | 27 | 204 | 0.0 | 0.0 | 0.00 | 0.00 | 0.00 | 76 | 1018.0 |
| 20260906061822 | 27 | 193 | 0.0 | 1.6 | 0.00 | 0.00 | 0.00 | 75 | 1017.9 |
| 20260906061318 | 27 | 203 | 0.0 | 0.0 | 0.00 | 0.00 | 0.00 | 75 | 1018.0 |
| 20260906060812 | 27 | 179 | 0.0 | 1.6 | 0.00 | 0.00 | 0.00 | 74 | 1018.0 |
| 20260906060310 | 27 | 215 | 1.6 | 3.2 | 0.00 | 0.00 | 0.00 | 74 | 1018.1 |
| 20260906055806 | 27 | 138 | 0.0 | 1.6 | 0.00 | 0.00 | 0.00 | 75 | 1017.9 |
| 20260906055301 | 27 | 155 | 0.0 | 0.0 | 0.00 | 0.00 | 0.00 | 74 | 1018.1 |
| 20260906054756 | 27 | 133 | 0.0 | 1.6 | 0.00 | 0.00 | 0.00 | 74 | 1018.2 |
| 20260906054251 | 27 | 175 | 0.0 | 1.6 | 0.00 | 0.00 | 0.00 | 74 | 1018.1 |
| 20260906053748 | 27 | 92 | 0.0 | 0.0 | 0.00 | 0.00 | 0.00 | 74 | 1018.4 |
| 20260906053243 | 27 | 166 | 0.0 | 0.0 | 0.00 | 0.00 | 0.00 | 74 | 1018.1 |
| 20260906052738 | 28 | 151 | 0.0 | 0.0 | 0.00 | 0.00 | 0.00 | 74 | 1018.0 |
| 20260906052234 | 28 | 171 | 0.0 | 0.0 | 0.00 | 0.00 | 0.00 | 73 | 1018.0 |
| 20260906051731 | 28 | 171 | 3.2 | 3.2 | 0.00 | 0.00 | 0.00 | 72 | 1017.9 |
| 20260906051231 | 28 | 204 | 0.0 | 1.6 | 0.00 | 0.00 | 0.00 | 73 | 1017.9 |
| 20260906050726 | 28 | 221 | 3.2 | 3.2 | 0.00 | 0.00 | 0.00 | 73 | 1017.9 |
| 20260906050221 | 28 | 212 | 1.6 | 1.6 | 0.00 | 0.00 | 0.00 | 73 | 1017.9 |
| 20260906045720 | 28 | 214 | 0.0 | 0.0 | 0.00 | 0.00 | 0.00 | 73 | 1018.0 |
| 20260906045215 | 28 | 196 | 1.6 | 1.6 | 0.00 | 0.00 | 0.00 | 73 | 1017.9 |
| 20260906044711 | 28 | 140 | 0.0 | 1.6 | 0.00 | 0.00 | 0.00 | 73 | 1017.8 |
| 20260906044206 | 28 | 186 | 0.0 | 0.0 | 0.00 | 0.00 | 0.00 | 72 | 1017.9 |
| 20260906043702 | 28 | 183 | 1.6 | 1.6 | 0.00 | 0.00 | 0.00 | 72 | 1018.1 |
| 20260906043158 | 28 | 183 | 1.6 | 1.6 | 0.00 | 0.00 | 0.00 | 71 | 1018.0 |
| 20260906042657 | 28 | 176 | 0.0 | 1.6 | 0.00 | 0.00 | 0.00 | 71 | 1017.9 |
| 20260906042156 | 28 | 191 | 0.0 | 0.0 | 0.00 | 0.00 | 0.00 | 71 | 1017.9 |
| 20260906041652 | 28 | 225 | 0.0 | 0.0 | 0.00 | 0.00 | 0.00 | 70 | 1018.0 |
| 20260906041147 | 28 | 194 | 1.6 | 1.6 | 0.00 | 0.00 | 0.00 | 71 | 1018.2 |
| 20260906040643 | 28 | 140 | 1.6 | 1.6 | 0.00 | 0.00 | 0.00 | 70 | 1017.9 |
| 20260906040138 | 29 | 162 | 0.0 | 1.6 | 0.00 | 0.00 | 0.00 | 70 | 1018.0 |
| 20260906035633 | 29 | 188 | 1.6 | 1.6 | 0.00 | 0.00 | 0.00 | 69 | 1018.0 |
| 20260906035129 | 29 | 195 | 4.8 | 4.8 | 0.00 | 0.00 | 0.00 | 69 | 1017.9 |
| 20260906034629 | 29 | 212 | 3.2 | 3.2 | 0.00 | 0.00 | 0.00 | 69 | 1018.2 |
| 20260906034124 | 29 | 174 | 0.0 | 0.0 | 0.00 | 0.00 | 0.00 | 69 | 1018.0 |
| 20260906033620 | 29 | 186 | 0.0 | 0.0 | 0.00 | 0.00 | 0.00 | 69 | 1017.9 |
| 20260906033120 | 29 | 186 | 0.0 | 0.0 | 0.00 | 0.00 | 0.00 | 68 | 1017.9 |
| 20260906032617 | 29 | 178 | 0.0 | 0.0 | 0.00 | 0.00 | 0.00 | 68 | 1018.0 |
| 20260906032116 | 29 | 183 | 0.0 | 0.0 | 0.00 | 0.00 | 0.00 | 67 | 1018.1 |
| 20260906031612 | 30 | 207 | 0.0 | 0.0 | 0.00 | 0.00 | 0.00 | 67 | 1018.1 |
| 20260906031107 | 30 | 176 | 1.6 | 3.2 | 0.00 | 0.00 | 0.00 | 66 | 1018.0 |
| 20260906030606 | 30 | 161 | 1.6 | 3.2 | 0.00 | 0.00 | 0.00 | 66 | 1018.1 |
| 20260906030101 | 30 | 217 | 0.0 | 0.0 | 0.00 | 0.00 | 0.00 | 65 | 1018.0 |
| 20260906025555 | 30 | 152 | 1.6 | 3.2 | 0.00 | 0.00 | 0.00 | 65 | 1018.0 |
| 20260906025054 | 30 | 158 | 0.0 | 1.6 | 0.00 | 0.00 | 0.00 | 64 | 1018.0 |
| 20260906024549 | 30 | 197 | 0.0 | 0.0 | 0.00 | 0.00 | 0.00 | 64 | 1018.1 |
| 20260906024044 | 30 | 217 | 0.0 | 0.0 | 0.00 | 0.00 | 0.00 | 64 | 1017.9 |
| 20260906023540 | 30 | 224 | 1.6 | 3.2 | 0.00 | 0.00 | 0.00 | 63 | 1017.7 |
| 20260906023034 | 30 | 192 | 0.0 | 0.0 | 0.00 | 0.00 | 0.00 | 63 | 1017.6 |
| 20260906022530 | 30 | 100 | 3.2 | 3.2 | 0.00 | 0.00 | 0.00 | 62 | 1017.6 |
| 20260906022025 | 30 | 206 | 1.6 | 1.6 | 0.00 | 0.00 | 0.00 | 62 | 1017.4 |
| 20260906021520 | 30 | 218 | 3.2 | 3.2 | 0.00 | 0.00 | 0.00 | 62 | 1017.6 |
| 20260906021014 | 30 | 175 | 0.0 | 0.0 | 0.00 | 0.00 | 0.00 | 62 | 1017.5 |
| 20260906020514 | 30 | 208 | 3.2 | 3.2 | 0.00 | 0.00 | 0.00 | 61 | 1017.5 |
| 20260906020014 | 30 | 215 | 3.2 | 3.2 | 0.00 | 0.00 | 0.00 | 61 | 1017.3 |
| 20260906015513 | 31 | 201 | 1.6 | 3.2 | 0.00 | 0.00 | 0.00 | 61 | 1017.3 |
| 20260906015012 | 31 | 200 | 0.0 | 1.6 | 0.00 | 0.00 | 0.00 | 60 | 1017.1 |
| 20260906014507 | 31 | 215 | 3.2 | 3.2 | 0.00 | 0.00 | 0.00 | 60 | 1017.0 |
| 20260906014003 | 31 | 217 | 1.6 | 3.2 | 0.00 | 0.00 | 0.00 | 60 | 1017.1 |
| 20260906013458 | 31 | 189 | 4.8 | 9.7 | 0.00 | 0.00 | 0.00 | 59 | 1017.1 |
| 20260906012948 | 31 | 169 | 3.2 | 3.2 | 0.00 | 0.00 | 0.00 | 59 | 1016.9 |
| 20260906012443 | 31 | 99 | 3.2 | 4.8 | 0.00 | 0.00 | 0.00 | 58 | 1017.0 |
| 20260906011942 | 32 | 123 | 3.2 | 4.8 | 0.00 | 0.00 | 0.00 | 57 | 1016.7 |
| 20260906011438 | 32 | 118 | 3.2 | 3.2 | 0.00 | 0.00 | 0.00 | 56 | 1016.7 |
| 20260906010933 | 32 | 139 | 3.2 | 4.8 | 0.00 | 0.00 | 0.00 | 55 | 1016.5 |
| 20260906010428 | 33 | 194 | 6.4 | 6.4 | 0.00 | 0.00 | 0.00 | 54 | 1016.6 |
| 20260906005925 | 33 | 176 | 1.6 | 3.2 | 0.00 | 0.00 | 0.00 | 53 | 1016.3 |
| 20260906005424 | 33 | 213 | 6.4 | 9.7 | 0.00 | 0.00 | 0.00 | 51 | 1016.4 |
| 20260906004923 | 33 | 133 | 1.6 | 3.2 | 0.00 | 0.00 | 0.00 | 49 | 1016.2 |
| 20260906004417 | 34 | 183 | 0.0 | 0.0 | 0.00 | 0.00 | 0.00 | 47 | 1016.0 |
| 20260906003913 | 34 | 227 | 0.0 | 0.0 | 0.00 | 0.00 | 0.00 | 47 | 1016.1 |
| 20260906003408 | 34 | 182 | 0.0 | 0.0 | 0.00 | 0.00 | 0.00 | 46 | 1016.2 |
| 20260906002903 | 35 | 181 | 0.0 | 0.0 | 0.00 | 0.00 | 0.00 | 46 | 1016.2 |
| 20260906002403 | 35 | 185 | 0.0 | 0.0 | 0.00 | 0.00 | 0.00 | 46 | 1016.1 |
| 20260906001858 | 35 | 146 | 0.0 | 0.0 | 0.00 | 0.00 | 0.00 | 45 | 1016.2 |
| 20260906001353 | 35 | 104 | 0.0 | 0.0 | 0.00 | 0.00 | 0.00 | 45 | 1016.2 |
| 20260906000848 | 35 | 151 | 0.0 | 0.0 | 0.00 | 0.00 | 0.00 | 45 | 1016.2 |
| 20260906000348 | 35 | 112 | 0.0 | 0.0 | 0.00 | 0.00 | 0.00 | 44 | 1016.2 |
| 20260905235843 | 35 | 204 | 3.2 | 3.2 | 0.00 | 0.00 | 0.00 | 44 | 1016.1 |
| 20260905235337 | 35 | 182 | 0.0 | 0.0 | 0.00 | 0.00 | 0.00 | 45 | 1016.1 |
| 20260905234833 | 35 | 198 | 0.0 | 0.0 | 0.00 | 0.00 | 0.00 | 44 | 1016.0 |
| 20260905234328 | 35 | 134 | 1.6 | 3.2 | 0.00 | 0.00 | 0.00 | 44 | 1015.9 |
| 20260905233823 | 35 | 182 | 1.6 | 1.6 | 0.00 | 0.00 | 0.00 | 43 | 1015.8 |
| 20260905233318 | 35 | 174 | 0.0 | 0.0 | 0.00 | 0.00 | 0.00 | 43 | 1015.8 |
| 20260905232817 | 36 | 166 | 3.2 | 6.4 | 0.00 | 0.00 | 0.00 | 43 | 1016.1 |
| 20260905232314 | 35 | 104 | 1.6 | 1.6 | 0.00 | 0.00 | 0.00 | 44 | 1016.1 |
| 20260905231809 | 36 | 192 | 0.0 | 1.6 | 0.00 | 0.00 | 0.00 | 43 | 1016.0 |
| 20260905231303 | 36 | 216 | 3.2 | 4.8 | 0.00 | 0.00 | 0.00 | 43 | 1016.0 |
| 20260905230800 | 36 | 129 | 1.6 | 1.6 | 0.00 | 0.00 | 0.00 | 43 | 1016.1 |
| 20260905230257 | 36 | 212 | 3.2 | 3.2 | 0.00 | 0.00 | 0.00 | 42 | 1016.0 |
| 20260905225752 | 36 | 196 | 1.6 | 1.6 | 0.00 | 0.00 | 0.00 | 43 | 1016.1 |
| 20260905225247 | 36 | 126 | 1.6 | 3.2 | 0.00 | 0.00 | 0.00 | 43 | 1016.0 |
| 20260905224746 | 36 | 145 | 1.6 | 3.2 | 0.00 | 0.00 | 0.00 | 42 | 1016.0 |